sensor_id;sensor_type;location;lat;lon;timestamp;pressure;altitude;pressure_sealevel;temperature;humidity
7264;BME280;3673;52.480;13.348;2023-08-07T00:01:59;99856.31;;;19.20;62.52
7264;BME280;3673;52.480;13.348;2023-08-07T00:04:26;99845.00;;;19.33;62.47
7264;BME280;3673;52.480;13.348;2023-08-07T00:06:53;99845.19;;;19.65;61.64
7264;BME280;3673;52.480;13.348;2023-08-07T00:09:20;99843.28;;;19.67;61.69
7264;BME280;3673;52.480;13.348;2023-08-07T00:11:48;99839.47;;;19.55;62.41
7264;BME280;3673;52.480;13.348;2023-08-07T00:14:15;99843.84;;;19.56;62.56
7264;BME280;3673;52.480;13.348;2023-08-07T00:16:42;99835.88;;;19.56;62.66
7264;BME280;3673;52.480;13.348;2023-08-07T00:19:10;99845.66;;;19.88;61.97
7264;BME280;3673;52.480;13.348;2023-08-07T00:21:37;99850.03;;;19.89;61.35
7264;BME280;3673;52.480;13.348;2023-08-07T00:24:04;99836.75;;;19.57;62.72
7264;BME280;3673;52.480;13.348;2023-08-07T00:26:31;99837.53;;;19.41;63.58
7264;BME280;3673;52.480;13.348;2023-08-07T00:28:59;99840.44;;;19.54;63.03
7264;BME280;3673;52.480;13.348;2023-08-07T00:31:26;99837.09;;;18.97;64.58
7264;BME280;3673;52.480;13.348;2023-08-07T00:33:56;99841.72;;;19.28;63.91
7264;BME280;3673;52.480;13.348;2023-08-07T00:36:23;99844.44;;;19.27;64.50
7264;BME280;3673;52.480;13.348;2023-08-07T00:38:51;99832.38;;;19.56;63.12
7264;BME280;3673;52.480;13.348;2023-08-07T00:41:17;99837.41;;;19.44;63.84
7264;BME280;3673;52.480;13.348;2023-08-07T00:43:44;99826.31;;;18.83;65.47
7264;BME280;3673;52.480;13.348;2023-08-07T00:46:12;99835.31;;;19.32;64.73
7264;BME280;3673;52.480;13.348;2023-08-07T00:48:39;99825.66;;;19.48;64.56
7264;BME280;3673;52.480;13.348;2023-08-07T00:51:06;99826.59;;;19.30;64.38
7264;BME280;3673;52.480;13.348;2023-08-07T00:53:37;99824.09;;;19.27;64.87
7264;BME280;3673;52.480;13.348;2023-08-07T00:56:05;99832.28;;;19.40;64.54
7264;BME280;3673;52.480;13.348;2023-08-07T00:58:32;99833.09;;;18.89;66.30
7264;BME280;3673;52.480;13.348;2023-08-07T01:00:59;99836.22;;;18.80;66.16
7264;BME280;3673;52.480;13.348;2023-08-07T01:03:27;99836.81;;;19.38;65.08
7264;BME280;3673;52.480;13.348;2023-08-07T01:05:54;99838.31;;;19.61;64.38
7264;BME280;3673;52.480;13.348;2023-08-07T01:08:21;99840.19;;;19.41;64.16
7264;BME280;3673;52.480;13.348;2023-08-07T01:11:04;99834.06;;;19.22;64.33
7264;BME280;3673;52.480;13.348;2023-08-07T01:13:40;99830.81;;;19.34;64.02
7264;BME280;3673;52.480;13.348;2023-08-07T01:16:14;99827.69;;;19.26;63.95
7264;BME280;3673;52.480;13.348;2023-08-07T01:18:45;99828.25;;;19.50;63.40
7264;BME280;3673;52.480;13.348;2023-08-07T01:21:17;99825.19;;;19.23;63.91
7264;BME280;3673;52.480;13.348;2023-08-07T01:23:47;99826.38;;;19.18;63.97
7264;BME280;3673;52.480;13.348;2023-08-07T01:26:14;99819.41;;;19.32;63.71
7264;BME280;3673;52.480;13.348;2023-08-07T01:28:46;99820.09;;;19.19;64.21
7264;BME280;3673;52.480;13.348;2023-08-07T01:31:16;99816.34;;;19.74;62.70
7264;BME280;3673;52.480;13.348;2023-08-07T01:33:53;99806.38;;;18.93;63.88
7264;BME280;3673;52.480;13.348;2023-08-07T01:36:22;99807.38;;;19.25;63.60
7264;BME280;3673;52.480;13.348;2023-08-07T01:38:53;99801.72;;;19.50;62.67
7264;BME280;3673;52.480;13.348;2023-08-07T01:41:21;99799.81;;;19.52;62.69
7264;BME280;3673;52.480;13.348;2023-08-07T01:43:48;99805.06;;;19.53;62.56
7264;BME280;3673;52.480;13.348;2023-08-07T01:46:14;99795.22;;;19.38;62.93
7264;BME280;3673;52.480;13.348;2023-08-07T01:48:41;99795.94;;;19.42;62.82
7264;BME280;3673;52.480;13.348;2023-08-07T01:51:08;99795.63;;;19.14;63.77
7264;BME280;3673;52.480;13.348;2023-08-07T01:53:35;99795.13;;;18.71;65.31
7264;BME280;3673;52.480;13.348;2023-08-07T01:56:03;99790.56;;;19.26;64.19
7264;BME280;3673;52.480;13.348;2023-08-07T01:58:30;99795.66;;;19.48;63.20
7264;BME280;3673;52.480;13.348;2023-08-07T02:00:57;99800.38;;;19.24;63.65
7264;BME280;3673;52.480;13.348;2023-08-07T02:03:23;99797.75;;;19.07;64.49
7264;BME280;3673;52.480;13.348;2023-08-07T02:05:50;99792.13;;;19.30;63.92
7264;BME280;3673;52.480;13.348;2023-08-07T02:08:17;99795.47;;;19.51;62.95
7264;BME280;3673;52.480;13.348;2023-08-07T02:10:44;99801.47;;;19.37;63.14
7264;BME280;3673;52.480;13.348;2023-08-07T02:13:12;99799.81;;;19.35;63.62
7264;BME280;3673;52.480;13.348;2023-08-07T02:15:38;99793.50;;;19.37;63.45
7264;BME280;3673;52.480;13.348;2023-08-07T02:18:05;99804.13;;;19.20;64.17
7264;BME280;3673;52.480;13.348;2023-08-07T02:20:32;99810.41;;;18.83;66.07
7264;BME280;3673;52.480;13.348;2023-08-07T02:22:59;99805.38;;;18.96;65.50
7264;BME280;3673;52.480;13.348;2023-08-07T02:25:25;99803.50;;;19.15;65.11
7264;BME280;3673;52.480;13.348;2023-08-07T02:27:52;99805.50;;;18.76;66.29
7264;BME280;3673;52.480;13.348;2023-08-07T02:30:20;99810.28;;;19.03;65.76
7264;BME280;3673;52.480;13.348;2023-08-07T02:32:47;99815.97;;;18.96;65.98
7264;BME280;3673;52.480;13.348;2023-08-07T02:35:14;99816.59;;;18.84;66.98
7264;BME280;3673;52.480;13.348;2023-08-07T02:37:41;99824.41;;;19.21;65.46
7264;BME280;3673;52.480;13.348;2023-08-07T02:40:09;99821.44;;;19.10;65.92
7264;BME280;3673;52.480;13.348;2023-08-07T02:42:39;99817.66;;;18.80;67.13
7264;BME280;3673;52.480;13.348;2023-08-07T02:45:07;99827.03;;;18.87;67.38
7264;BME280;3673;52.480;13.348;2023-08-07T02:47:35;99825.00;;;19.09;66.96
7264;BME280;3673;52.480;13.348;2023-08-07T02:50:02;99832.19;;;19.07;66.73
7264;BME280;3673;52.480;13.348;2023-08-07T02:52:30;99825.84;;;18.92;67.61
7264;BME280;3673;52.480;13.348;2023-08-07T02:54:56;99836.84;;;19.02;67.04
7264;BME280;3673;52.480;13.348;2023-08-07T02:57:23;99835.31;;;18.98;67.90
7264;BME280;3673;52.480;13.348;2023-08-07T02:59:51;99832.44;;;19.20;67.07
7264;BME280;3673;52.480;13.348;2023-08-07T03:02:18;99833.16;;;18.70;68.80
7264;BME280;3673;52.480;13.348;2023-08-07T03:04:46;99831.69;;;18.82;68.63
7264;BME280;3673;52.480;13.348;2023-08-07T03:07:13;99837.81;;;18.65;68.85
7264;BME280;3673;52.480;13.348;2023-08-07T03:09:39;99834.88;;;18.88;68.48
7264;BME280;3673;52.480;13.348;2023-08-07T03:12:07;99826.75;;;19.10;67.84
7264;BME280;3673;52.480;13.348;2023-08-07T03:14:34;99828.22;;;19.16;68.12
7264;BME280;3673;52.480;13.348;2023-08-07T03:17:01;99838.44;;;19.06;67.93
7264;BME280;3673;52.480;13.348;2023-08-07T03:19:28;99830.25;;;19.11;67.78
7264;BME280;3673;52.480;13.348;2023-08-07T03:21:56;99832.50;;;19.18;67.55
7264;BME280;3673;52.480;13.348;2023-08-07T03:24:23;99837.75;;;19.37;66.86
7264;BME280;3673;52.480;13.348;2023-08-07T03:26:49;99840.94;;;19.26;66.88
7264;BME280;3673;52.480;13.348;2023-08-07T03:29:16;99832.66;;;18.98;68.04
7264;BME280;3673;52.480;13.348;2023-08-07T03:31:43;99839.34;;;19.41;67.27
7264;BME280;3673;52.480;13.348;2023-08-07T03:34:10;99835.41;;;19.14;67.53
7264;BME280;3673;52.480;13.348;2023-08-07T03:36:37;99847.59;;;19.52;66.60
7264;BME280;3673;52.480;13.348;2023-08-07T03:39:05;99841.19;;;19.56;66.40
7264;BME280;3673;52.480;13.348;2023-08-07T03:41:31;99837.75;;;19.37;66.89
7264;BME280;3673;52.480;13.348;2023-08-07T03:43:58;99848.34;;;19.37;66.67
7264;BME280;3673;52.480;13.348;2023-08-07T03:46:25;99849.75;;;19.27;67.27
7264;BME280;3673;52.480;13.348;2023-08-07T03:48:52;99852.69;;;18.86;68.96
7264;BME280;3673;52.480;13.348;2023-08-07T03:51:18;99847.88;;;18.94;68.52
7264;BME280;3673;52.480;13.348;2023-08-07T03:53:45;99843.72;;;19.06;68.27
7264;BME280;3673;52.480;13.348;2023-08-07T03:56:13;99851.59;;;18.90;68.58
7264;BME280;3673;52.480;13.348;2023-08-07T03:58:40;99850.28;;;18.99;67.89
7264;BME280;3673;52.480;13.348;2023-08-07T04:01:07;99854.75;;;18.80;68.72
7264;BME280;3673;52.480;13.348;2023-08-07T04:03:34;99853.56;;;19.04;67.40
7264;BME280;3673;52.480;13.348;2023-08-07T04:06:01;99848.97;;;19.25;67.22
7264;BME280;3673;52.480;13.348;2023-08-07T04:08:27;99847.69;;;19.50;66.48
7264;BME280;3673;52.480;13.348;2023-08-07T04:10:59;99853.97;;;19.31;66.96
7264;BME280;3673;52.480;13.348;2023-08-07T04:13:28;99850.59;;;19.10;67.66
7264;BME280;3673;52.480;13.348;2023-08-07T04:15:55;99853.56;;;19.04;67.24
7264;BME280;3673;52.480;13.348;2023-08-07T04:18:22;99844.66;;;19.22;67.21
7264;BME280;3673;52.480;13.348;2023-08-07T04:20:49;99845.28;;;18.93;67.55
7264;BME280;3673;52.480;13.348;2023-08-07T04:23:18;99845.94;;;18.79;68.40
7264;BME280;3673;52.480;13.348;2023-08-07T04:25:45;99840.94;;;19.26;67.20
7264;BME280;3673;52.480;13.348;2023-08-07T04:28:12;99846.75;;;18.81;67.12
7264;BME280;3673;52.480;13.348;2023-08-07T04:30:40;99846.91;;;18.60;68.38
7264;BME280;3673;52.480;13.348;2023-08-07T04:33:07;99851.25;;;18.79;68.07
7264;BME280;3673;52.480;13.348;2023-08-07T04:35:34;99851.81;;;18.86;67.52
7264;BME280;3673;52.480;13.348;2023-08-07T04:38:02;99856.78;;;19.11;67.60
7264;BME280;3673;52.480;13.348;2023-08-07T04:40:29;99860.16;;;19.48;65.76
7264;BME280;3673;52.480;13.348;2023-08-07T04:42:56;99860.94;;;18.80;67.42
7264;BME280;3673;52.480;13.348;2023-08-07T04:45:23;99851.47;;;19.11;66.29
7264;BME280;3673;52.480;13.348;2023-08-07T04:47:51;99860.41;;;18.91;67.00
7264;BME280;3673;52.480;13.348;2023-08-07T04:50:18;99858.44;;;18.77;67.28
7264;BME280;3673;52.480;13.348;2023-08-07T04:52:45;99858.47;;;19.12;66.54
7264;BME280;3673;52.480;13.348;2023-08-07T04:55:11;99853.72;;;19.01;66.85
7264;BME280;3673;52.480;13.348;2023-08-07T04:57:38;99859.78;;;19.03;66.41
7264;BME280;3673;52.480;13.348;2023-08-07T05:00:07;99860.72;;;19.02;66.09
7264;BME280;3673;52.480;13.348;2023-08-07T05:02:34;99870.13;;;19.26;66.01
7264;BME280;3673;52.480;13.348;2023-08-07T05:05:03;99874.81;;;18.85;66.15
7264;BME280;3673;52.480;13.348;2023-08-07T05:07:30;99873.72;;;18.89;66.73
7264;BME280;3673;52.480;13.348;2023-08-07T05:09:59;99862.22;;;19.08;65.86
7264;BME280;3673;52.480;13.348;2023-08-07T05:12:26;99864.41;;;19.17;64.79
7264;BME280;3673;52.480;13.348;2023-08-07T05:14:53;99867.50;;;18.90;65.45
7264;BME280;3673;52.480;13.348;2023-08-07T05:17:20;99877.59;;;19.35;64.26
7264;BME280;3673;52.480;13.348;2023-08-07T05:19:47;99875.72;;;19.20;64.36
7264;BME280;3673;52.480;13.348;2023-08-07T05:22:15;99869.69;;;18.99;65.23
7264;BME280;3673;52.480;13.348;2023-08-07T05:24:42;99883.50;;;19.06;65.18
7264;BME280;3673;52.480;13.348;2023-08-07T05:27:10;99881.22;;;18.81;65.03
7264;BME280;3673;52.480;13.348;2023-08-07T05:29:37;99876.03;;;19.14;64.92
7264;BME280;3673;52.480;13.348;2023-08-07T05:32:09;99887.31;;;19.00;64.58
7264;BME280;3673;52.480;13.348;2023-08-07T05:34:36;99882.69;;;18.87;65.17
7264;BME280;3673;52.480;13.348;2023-08-07T05:37:03;99890.19;;;18.96;64.46
7264;BME280;3673;52.480;13.348;2023-08-07T05:39:32;99891.00;;;18.98;64.84
7264;BME280;3673;52.480;13.348;2023-08-07T05:41:59;99884.56;;;19.21;64.39
7264;BME280;3673;52.480;13.348;2023-08-07T05:44:25;99893.94;;;19.45;62.87
7264;BME280;3673;52.480;13.348;2023-08-07T05:46:52;99894.97;;;19.60;62.75
7264;BME280;3673;52.480;13.348;2023-08-07T05:49:19;99901.50;;;19.87;62.36
7264;BME280;3673;52.480;13.348;2023-08-07T05:51:46;99906.81;;;19.87;62.11
7264;BME280;3673;52.480;13.348;2023-08-07T05:54:13;99900.91;;;19.29;63.78
7264;BME280;3673;52.480;13.348;2023-08-07T05:56:41;99904.63;;;19.43;63.74
7264;BME280;3673;52.480;13.348;2023-08-07T05:59:08;99907.16;;;19.11;64.59
7264;BME280;3673;52.480;13.348;2023-08-07T06:01:34;99908.22;;;19.77;62.53
7264;BME280;3673;52.480;13.348;2023-08-07T06:04:02;99899.50;;;19.75;62.96
7264;BME280;3673;52.480;13.348;2023-08-07T06:06:29;99892.38;;;19.58;62.91
7264;BME280;3673;52.480;13.348;2023-08-07T06:09:00;99904.00;;;19.73;62.12
7264;BME280;3673;52.480;13.348;2023-08-07T06:11:27;99899.53;;;19.90;62.80
7264;BME280;3673;52.480;13.348;2023-08-07T06:13:55;99901.13;;;20.27;61.25
7264;BME280;3673;52.480;13.348;2023-08-07T06:16:22;99897.91;;;19.88;62.27
7264;BME280;3673;52.480;13.348;2023-08-07T06:18:48;99911.97;;;19.73;62.63
7264;BME280;3673;52.480;13.348;2023-08-07T06:21:15;99912.59;;;19.43;63.08
7264;BME280;3673;52.480;13.348;2023-08-07T06:23:42;99926.53;;;19.98;61.95
7264;BME280;3673;52.480;13.348;2023-08-07T06:26:09;99931.03;;;19.81;61.50
7264;BME280;3673;52.480;13.348;2023-08-07T06:28:36;99942.56;;;19.97;60.73
7264;BME280;3673;52.480;13.348;2023-08-07T06:31:06;99934.31;;;20.36;59.60
7264;BME280;3673;52.480;13.348;2023-08-07T06:33:33;99936.00;;;20.04;60.28
7264;BME280;3673;52.480;13.348;2023-08-07T06:36:01;99950.44;;;19.98;60.63
7264;BME280;3673;52.480;13.348;2023-08-07T06:38:28;99953.03;;;20.00;59.43
7264;BME280;3673;52.480;13.348;2023-08-07T06:40:55;99945.44;;;20.10;58.63
7264;BME280;3673;52.480;13.348;2023-08-07T06:43:22;99938.69;;;20.20;59.03
7264;BME280;3673;52.480;13.348;2023-08-07T06:45:51;99956.09;;;20.42;57.99
7264;BME280;3673;52.480;13.348;2023-08-07T06:48:19;99950.16;;;20.37;57.62
7264;BME280;3673;52.480;13.348;2023-08-07T06:50:47;99935.72;;;20.09;58.55
7264;BME280;3673;52.480;13.348;2023-08-07T06:53:13;99951.09;;;20.36;58.38
7264;BME280;3673;52.480;13.348;2023-08-07T06:55:41;99952.78;;;20.70;57.10
7264;BME280;3673;52.480;13.348;2023-08-07T06:58:08;99936.91;;;21.47;55.63
7264;BME280;3673;52.480;13.348;2023-08-07T07:00:35;99940.97;;;21.23;56.13
7264;BME280;3673;52.480;13.348;2023-08-07T07:03:03;99944.53;;;20.59;57.56
7264;BME280;3673;52.480;13.348;2023-08-07T07:05:32;99956.34;;;20.38;57.73
7264;BME280;3673;52.480;13.348;2023-08-07T07:07:59;99950.13;;;20.54;57.58
7264;BME280;3673;52.480;13.348;2023-08-07T07:10:25;99948.34;;;20.86;56.85
7264;BME280;3673;52.480;13.348;2023-08-07T07:12:52;99946.22;;;21.24;55.84
7264;BME280;3673;52.480;13.348;2023-08-07T07:15:19;99953.75;;;21.16;55.75
7264;BME280;3673;52.480;13.348;2023-08-07T07:17:46;99956.91;;;21.07;55.98
7264;BME280;3673;52.480;13.348;2023-08-07T07:20:12;99951.03;;;21.18;55.62
7264;BME280;3673;52.480;13.348;2023-08-07T07:22:41;99962.50;;;21.02;55.51
7264;BME280;3673;52.480;13.348;2023-08-07T07:25:09;99968.16;;;20.81;55.27
7264;BME280;3673;52.480;13.348;2023-08-07T07:27:36;99965.09;;;21.20;54.20
7264;BME280;3673;52.480;13.348;2023-08-07T07:30:04;99972.16;;;20.72;55.77
7264;BME280;3673;52.480;13.348;2023-08-07T07:32:31;99971.50;;;20.84;55.07
7264;BME280;3673;52.480;13.348;2023-08-07T07:34:58;99973.06;;;21.04;53.96
7264;BME280;3673;52.480;13.348;2023-08-07T07:37:24;99966.94;;;20.86;54.43
7264;BME280;3673;52.480;13.348;2023-08-07T07:39:52;99973.84;;;21.37;53.38
7264;BME280;3673;52.480;13.348;2023-08-07T07:42:19;99972.47;;;21.30;53.39
7264;BME280;3673;52.480;13.348;2023-08-07T07:44:46;99972.09;;;21.05;53.90
7264;BME280;3673;52.480;13.348;2023-08-07T07:47:13;99993.13;;;20.94;54.13
7264;BME280;3673;52.480;13.348;2023-08-07T07:49:45;99994.34;;;21.04;54.31
7264;BME280;3673;52.480;13.348;2023-08-07T07:52:13;99986.13;;;21.24;53.52
7264;BME280;3673;52.480;13.348;2023-08-07T07:54:39;99989.16;;;20.85;53.78
7264;BME280;3673;52.480;13.348;2023-08-07T07:57:08;99988.84;;;21.38;53.11
7264;BME280;3673;52.480;13.348;2023-08-07T07:59:35;99982.84;;;20.88;53.78
7264;BME280;3673;52.480;13.348;2023-08-07T08:02:02;99975.28;;;21.43;53.12
7264;BME280;3673;52.480;13.348;2023-08-07T08:04:29;99991.56;;;21.68;52.10
7264;BME280;3673;52.480;13.348;2023-08-07T08:06:56;99980.41;;;21.46;52.84
7264;BME280;3673;52.480;13.348;2023-08-07T08:09:23;99992.38;;;21.23;53.74
7264;BME280;3673;52.480;13.348;2023-08-07T08:11:50;99988.53;;;22.04;51.50
7264;BME280;3673;52.480;13.348;2023-08-07T08:14:18;99999.84;;;21.48;52.59
7264;BME280;3673;52.480;13.348;2023-08-07T08:16:45;99989.53;;;21.42;53.40
7264;BME280;3673;52.480;13.348;2023-08-07T08:19:11;99985.59;;;21.33;53.44
7264;BME280;3673;52.480;13.348;2023-08-07T08:21:39;99994.47;;;21.64;52.87
7264;BME280;3673;52.480;13.348;2023-08-07T08:24:06;99995.91;;;21.85;52.82
7264;BME280;3673;52.480;13.348;2023-08-07T08:26:32;100002.53;;;21.62;53.98
7264;BME280;3673;52.480;13.348;2023-08-07T08:28:59;99999.88;;;21.62;54.17
7264;BME280;3673;52.480;13.348;2023-08-07T08:31:28;99999.88;;;21.62;54.46
7264;BME280;3673;52.480;13.348;2023-08-07T08:33:55;100018.41;;;21.18;54.73
7264;BME280;3673;52.480;13.348;2023-08-07T08:36:23;100016.25;;;21.25;54.40
7264;BME280;3673;52.480;13.348;2023-08-07T08:38:50;100008.88;;;21.91;53.35
7264;BME280;3673;52.480;13.348;2023-08-07T08:41:17;100002.81;;;22.03;53.15
7264;BME280;3673;52.480;13.348;2023-08-07T08:43:46;100005.59;;;22.16;52.39
7264;BME280;3673;52.480;13.348;2023-08-07T08:46:15;100008.47;;;21.67;52.79
7264;BME280;3673;52.480;13.348;2023-08-07T08:48:51;100010.34;;;21.81;51.78
7264;BME280;3673;52.480;13.348;2023-08-07T08:51:19;100002.66;;;22.20;50.93
7264;BME280;3673;52.480;13.348;2023-08-07T08:53:47;100003.81;;;22.30;50.27
7264;BME280;3673;52.480;13.348;2023-08-07T08:56:15;100016.25;;;22.01;51.05
7264;BME280;3673;52.480;13.348;2023-08-07T08:58:43;100022.84;;;21.79;51.62
7264;BME280;3673;52.480;13.348;2023-08-07T09:01:10;100009.81;;;22.34;50.42
7264;BME280;3673;52.480;13.348;2023-08-07T09:03:38;100010.44;;;22.67;49.58
7264;BME280;3673;52.480;13.348;2023-08-07T09:06:07;100011.31;;;23.23;47.99
7264;BME280;3673;52.480;13.348;2023-08-07T09:08:34;100013.84;;;23.12;48.46
7264;BME280;3673;52.480;13.348;2023-08-07T09:11:02;99999.16;;;22.34;49.61
7264;BME280;3673;52.480;13.348;2023-08-07T09:13:29;99999.16;;;22.62;49.22
7264;BME280;3673;52.480;13.348;2023-08-07T09:15:59;99987.38;;;22.80;50.44
7264;BME280;3673;52.480;13.348;2023-08-07T09:18:27;100013.03;;;22.39;51.80
7264;BME280;3673;52.480;13.348;2023-08-07T09:20:54;100033.06;;;21.25;55.07
7264;BME280;3673;52.480;13.348;2023-08-07T09:23:24;100019.56;;;21.28;56.48
7264;BME280;3673;52.480;13.348;2023-08-07T09:26:00;100023.94;;;22.06;54.42
7264;BME280;3673;52.480;13.348;2023-08-07T09:28:28;100020.22;;;21.94;55.69
7264;BME280;3673;52.480;13.348;2023-08-07T09:30:55;100018.53;;;22.80;53.81
7264;BME280;3673;52.480;13.348;2023-08-07T09:33:25;100030.91;;;22.81;53.56
7264;BME280;3673;52.480;13.348;2023-08-07T09:35:52;100030.38;;;22.02;55.22
7264;BME280;3673;52.480;13.348;2023-08-07T09:38:28;100025.56;;;22.08;55.54
7264;BME280;3673;52.480;13.348;2023-08-07T09:40:57;100023.56;;;22.12;55.34
7264;BME280;3673;52.480;13.348;2023-08-07T09:43:24;100024.03;;;22.04;54.17
7264;BME280;3673;52.480;13.348;2023-08-07T09:45:51;100035.72;;;22.02;53.23
7264;BME280;3673;52.480;13.348;2023-08-07T09:48:23;100023.47;;;22.14;53.23
7264;BME280;3673;52.480;13.348;2023-08-07T09:50:51;100032.94;;;22.33;51.83
7264;BME280;3673;52.480;13.348;2023-08-07T09:53:18;100033.38;;;22.12;52.18
7264;BME280;3673;52.480;13.348;2023-08-07T09:55:46;100041.28;;;22.13;52.94
7264;BME280;3673;52.480;13.348;2023-08-07T10:00:40;100044.97;;;22.11;51.92
7264;BME280;3673;52.480;13.348;2023-08-07T10:03:07;100047.03;;;22.49;51.41
7264;BME280;3673;52.480;13.348;2023-08-07T10:05:35;100035.81;;;22.58;51.27
7264;BME280;3673;52.480;13.348;2023-08-07T10:08:03;100044.00;;;22.55;50.88
7264;BME280;3673;52.480;13.348;2023-08-07T10:10:32;100044.91;;;22.70;50.51
7264;BME280;3673;52.480;13.348;2023-08-07T10:13:01;100046.22;;;23.05;48.91
7264;BME280;3673;52.480;13.348;2023-08-07T10:15:30;100036.34;;;23.75;47.38
7264;BME280;3673;52.480;13.348;2023-08-07T10:17:57;100048.63;;;22.82;48.13
7264;BME280;3673;52.480;13.348;2023-08-07T10:20:26;100033.25;;;22.57;48.91
7264;BME280;3673;52.480;13.348;2023-08-07T10:22:54;100028.25;;;22.67;49.25
7264;BME280;3673;52.480;13.348;2023-08-07T10:25:24;100044.28;;;22.65;47.71
7264;BME280;3673;52.480;13.348;2023-08-07T10:27:54;100040.84;;;22.05;48.88
7264;BME280;3673;52.480;13.348;2023-08-07T10:30:24;100055.75;;;22.23;48.13
7264;BME280;3673;52.480;13.348;2023-08-07T10:32:52;100048.47;;;22.41;48.39
7264;BME280;3673;52.480;13.348;2023-08-07T10:35:25;100041.91;;;22.02;49.33
7264;BME280;3673;52.480;13.348;2023-08-07T10:37:53;100035.16;;;22.41;48.66
7264;BME280;3673;52.480;13.348;2023-08-07T10:40:20;100035.91;;;22.43;48.70
7264;BME280;3673;52.480;13.348;2023-08-07T10:42:55;100046.34;;;22.32;48.62
7264;BME280;3673;52.480;13.348;2023-08-07T10:45:24;100042.66;;;22.48;48.21
7264;BME280;3673;52.480;13.348;2023-08-07T10:48:08;100031.31;;;22.75;48.00
7264;BME280;3673;52.480;13.348;2023-08-07T10:50:47;100035.47;;;22.93;47.60
7264;BME280;3673;52.480;13.348;2023-08-07T10:53:19;100037.56;;;23.02;46.94
7264;BME280;3673;52.480;13.348;2023-08-07T10:55:47;100036.50;;;22.48;48.30
7264;BME280;3673;52.480;13.348;2023-08-07T10:58:25;100039.38;;;23.01;46.78
7264;BME280;3673;52.480;13.348;2023-08-07T11:01:18;100049.31;;;22.27;47.47
7264;BME280;3673;52.480;13.348;2023-08-07T11:03:48;100043.28;;;22.82;47.43
7264;BME280;3673;52.480;13.348;2023-08-07T11:06:16;100055.25;;;22.46;47.72
7264;BME280;3673;52.480;13.348;2023-08-07T11:08:43;100061.41;;;22.77;47.42
7264;BME280;3673;52.480;13.348;2023-08-07T11:11:10;100080.59;;;21.63;50.53
7264;BME280;3673;52.480;13.348;2023-08-07T11:13:37;100067.38;;;21.45;51.96
7264;BME280;3673;52.480;13.348;2023-08-07T11:16:04;100072.94;;;21.88;51.44
7264;BME280;3673;52.480;13.348;2023-08-07T11:18:32;100058.56;;;21.61;52.94
7264;BME280;3673;52.480;13.348;2023-08-07T11:21:01;100044.13;;;22.10;52.63
7264;BME280;3673;52.480;13.348;2023-08-07T11:23:28;100044.06;;;22.12;52.37
7264;BME280;3673;52.480;13.348;2023-08-07T11:25:55;100051.38;;;22.08;52.54
7264;BME280;3673;52.480;13.348;2023-08-07T11:28:23;100052.34;;;22.21;52.38
7264;BME280;3673;52.480;13.348;2023-08-07T11:30:52;100061.31;;;22.48;51.79
7264;BME280;3673;52.480;13.348;2023-08-07T11:33:21;100061.34;;;22.63;50.97
7264;BME280;3673;52.480;13.348;2023-08-07T11:35:50;100053.97;;;22.24;51.91
7264;BME280;3673;52.480;13.348;2023-08-07T11:38:30;100060.19;;;22.08;51.96
7264;BME280;3673;52.480;13.348;2023-08-07T11:40:59;100066.00;;;22.01;52.72
7264;BME280;3673;52.480;13.348;2023-08-07T11:43:28;100091.25;;;21.63;53.17
7264;BME280;3673;52.480;13.348;2023-08-07T11:45:56;100089.53;;;21.93;54.26
7264;BME280;3673;52.480;13.348;2023-08-07T11:48:24;100073.84;;;22.18;53.05
7264;BME280;3673;52.480;13.348;2023-08-07T11:50:54;100080.47;;;22.41;52.87
7264;BME280;3673;52.480;13.348;2023-08-07T11:53:22;100054.34;;;22.32;52.71
7264;BME280;3673;52.480;13.348;2023-08-07T11:55:53;100054.22;;;23.20;51.09
7264;BME280;3673;52.480;13.348;2023-08-07T11:58:21;100046.72;;;23.53;49.45
7264;BME280;3673;52.480;13.348;2023-08-07T12:00:48;100048.75;;;23.76;48.69
7264;BME280;3673;52.480;13.348;2023-08-07T12:03:27;100040.53;;;23.12;49.50
7264;BME280;3673;52.480;13.348;2023-08-07T12:05:57;100044.38;;;23.34;49.59
7264;BME280;3673;52.480;13.348;2023-08-07T12:08:25;100058.69;;;22.63;49.74
7264;BME280;3673;52.480;13.348;2023-08-07T12:10:57;100037.56;;;23.57;48.13
7264;BME280;3673;52.480;13.348;2023-08-07T12:13:25;100037.13;;;23.36;47.96
7264;BME280;3673;52.480;13.348;2023-08-07T12:15:54;100030.09;;;23.62;47.84
7264;BME280;3673;52.480;13.348;2023-08-07T12:18:22;100036.50;;;23.59;47.15
7264;BME280;3673;52.480;13.348;2023-08-07T12:20:50;100032.66;;;23.23;47.61
7264;BME280;3673;52.480;13.348;2023-08-07T12:23:20;100036.44;;;22.78;48.30
7264;BME280;3673;52.480;13.348;2023-08-07T12:25:47;100037.13;;;22.81;48.36
7264;BME280;3673;52.480;13.348;2023-08-07T12:28:15;100043.66;;;22.76;48.57
7264;BME280;3673;52.480;13.348;2023-08-07T12:30:44;100038.13;;;22.93;48.47
7264;BME280;3673;52.480;13.348;2023-08-07T12:33:12;100038.00;;;22.52;49.42
7264;BME280;3673;52.480;13.348;2023-08-07T12:35:39;100045.78;;;22.85;48.78
7264;BME280;3673;52.480;13.348;2023-08-07T12:38:06;100052.41;;;23.06;48.70
7264;BME280;3673;52.480;13.348;2023-08-07T12:40:35;100057.09;;;23.02;48.78
7264;BME280;3673;52.480;13.348;2023-08-07T12:43:02;100049.53;;;23.23;48.20
7264;BME280;3673;52.480;13.348;2023-08-07T12:45:29;100051.78;;;23.57;47.50
7264;BME280;3673;52.480;13.348;2023-08-07T12:47:56;100054.59;;;23.28;47.97
7264;BME280;3673;52.480;13.348;2023-08-07T12:50:23;100066.50;;;22.66;49.80
7264;BME280;3673;52.480;13.348;2023-08-07T12:52:50;100061.69;;;22.28;50.79
7264;BME280;3673;52.480;13.348;2023-08-07T12:55:16;100068.16;;;22.82;49.65
7264;BME280;3673;52.480;13.348;2023-08-07T12:57:45;100083.63;;;22.47;50.10
7264;BME280;3673;52.480;13.348;2023-08-07T13:00:13;100109.38;;;22.33;52.93
7264;BME280;3673;52.480;13.348;2023-08-07T13:02:41;100106.28;;;21.32;56.67
7264;BME280;3673;52.480;13.348;2023-08-07T13:05:08;100111.38;;;21.04;57.77
7264;BME280;3673;52.480;13.348;2023-08-07T13:07:36;100104.31;;;21.36;57.88
7264;BME280;3673;52.480;13.348;2023-08-07T13:10:06;100096.22;;;21.84;56.71
7264;BME280;3673;52.480;13.348;2023-08-07T13:12:35;100081.56;;;23.51;52.91
7264;BME280;3673;52.480;13.348;2023-08-07T13:15:07;100079.91;;;23.90;51.09